sensor_id;sensor_type;location;lat;lon;timestamp;pressure;altitude;pressure_sealevel;temperature;humidity
41062;BME280;26812;42.662;23.352;2023-03-07T00:00:56;94160.78;;;9.59;51.48
41062;BME280;26812;42.662;23.352;2023-03-07T00:03:22;94142.41;;;10.61;48.19
41062;BME280;26812;42.662;23.352;2023-03-07T00:05:47;94147.59;;;10.66;48.03
41062;BME280;26812;42.662;23.352;2023-03-07T00:08:13;94114.72;;;11.09;46.42
41062;BME280;26812;42.662;23.352;2023-03-07T00:10:38;94133.56;;;11.09;46.33
41062;BME280;26812;42.662;23.352;2023-03-07T00:13:03;94129.72;;;11.22;45.92
41062;BME280;26812;42.662;23.352;2023-03-07T00:15:29;94158.16;;;10.95;46.93
41062;BME280;26812;42.662;23.352;2023-03-07T00:17:55;94113.66;;;9.95;48.89
41062;BME280;26812;42.662;23.352;2023-03-07T00:20:21;94133.16;;;9.71;50.24
41062;BME280;26812;42.662;23.352;2023-03-07T00:22:47;94074.53;;;9.64;49.79
41062;BME280;26812;42.662;23.352;2023-03-07T00:25:12;94113.25;;;9.51;51.04
41062;BME280;26812;42.662;23.352;2023-03-07T00:27:39;94077.72;;;10.12;48.18
41062;BME280;26812;42.662;23.352;2023-03-07T00:30:05;94121.16;;;10.22;49.19
41062;BME280;26812;42.662;23.352;2023-03-07T00:32:31;94093.22;;;9.82;49.80
41062;BME280;26812;42.662;23.352;2023-03-07T00:34:57;94101.16;;;9.16;52.12
41062;BME280;26812;42.662;23.352;2023-03-07T00:37:23;94091.66;;;10.38;48.38
41062;BME280;26812;42.662;23.352;2023-03-07T00:39:49;94115.59;;;10.64;47.19
41062;BME280;26812;42.662;23.352;2023-03-07T00:42:15;94118.41;;;10.43;47.85
41062;BME280;26812;42.662;23.352;2023-03-07T00:44:41;94105.91;;;9.60;50.51
41062;BME280;26812;42.662;23.352;2023-03-07T00:47:06;94077.44;;;10.05;49.28
41062;BME280;26812;42.662;23.352;2023-03-07T00:49:32;94106.69;;;9.61;50.11
41062;BME280;26812;42.662;23.352;2023-03-07T00:52:04;94073.44;;;10.11;48.93
41062;BME280;26812;42.662;23.352;2023-03-07T00:54:29;94090.69;;;9.02;51.90
41062;BME280;26812;42.662;23.352;2023-03-07T00:56:55;94098.94;;;9.18;52.39
41062;BME280;26812;42.662;23.352;2023-03-07T00:59:20;94105.53;;;8.40;54.31
41062;BME280;26812;42.662;23.352;2023-03-07T01:01:45;94090.53;;;8.98;53.25
41062;BME280;26812;42.662;23.352;2023-03-07T01:04:11;94082.16;;;9.42;50.91
41062;BME280;26812;42.662;23.352;2023-03-07T01:06:36;94111.75;;;9.75;50.99
41062;BME280;26812;42.662;23.352;2023-03-07T01:09:04;94092.53;;;9.31;51.88
41062;BME280;26812;42.662;23.352;2023-03-07T01:11:32;94086.88;;;9.65;50.42
41062;BME280;26812;42.662;23.352;2023-03-07T01:13:59;94110.75;;;9.25;51.18
41062;BME280;26812;42.662;23.352;2023-03-07T01:16:29;94064.84;;;9.51;50.32
41062;BME280;26812;42.662;23.352;2023-03-07T01:18:57;94104.06;;;10.18;49.47
41062;BME280;26812;42.662;23.352;2023-03-07T01:21:24;94099.53;;;9.98;49.23
41062;BME280;26812;42.662;23.352;2023-03-07T01:23:50;94089.09;;;9.96;49.06
41062;BME280;26812;42.662;23.352;2023-03-07T01:26:18;94087.63;;;9.99;49.01
41062;BME280;26812;42.662;23.352;2023-03-07T01:28:44;94081.81;;;10.09;48.34
41062;BME280;26812;42.662;23.352;2023-03-07T01:31:10;94049.81;;;10.29;47.57
41062;BME280;26812;42.662;23.352;2023-03-07T01:33:36;94071.75;;;9.73;49.19
41062;BME280;26812;42.662;23.352;2023-03-07T01:36:02;94066.88;;;9.54;49.97
41062;BME280;26812;42.662;23.352;2023-03-07T01:38:28;94050.75;;;9.87;48.11
41062;BME280;26812;42.662;23.352;2023-03-07T01:40:59;94080.41;;;9.79;47.84
41062;BME280;26812;42.662;23.352;2023-03-07T01:48:16;94066.56;;;10.01;47.47
41062;BME280;26812;42.662;23.352;2023-03-07T01:50:42;94044.16;;;9.64;47.80
41062;BME280;26812;42.662;23.352;2023-03-07T01:53:08;94056.72;;;9.18;49.20
41062;BME280;26812;42.662;23.352;2023-03-07T01:55:35;94065.72;;;9.01;49.81
41062;BME280;26812;42.662;23.352;2023-03-07T01:58:09;94053.94;;;9.48;49.16
41062;BME280;26812;42.662;23.352;2023-03-07T02:00:37;94066.91;;;9.67;48.36
41062;BME280;26812;42.662;23.352;2023-03-07T02:05:36;94083.16;;;8.66;51.54
41062;BME280;26812;42.662;23.352;2023-03-07T02:08:03;94038.13;;;9.13;50.51
41062;BME280;26812;42.662;23.352;2023-03-07T02:10:31;94055.41;;;9.78;48.16
41062;BME280;26812;42.662;23.352;2023-03-07T02:12:57;94070.47;;;10.24;46.80
41062;BME280;26812;42.662;23.352;2023-03-07T02:15:23;94048.06;;;9.87;47.79
41062;BME280;26812;42.662;23.352;2023-03-07T02:17:48;94054.34;;;10.04;48.14
41062;BME280;26812;42.662;23.352;2023-03-07T02:20:55;94069.34;;;10.25;48.39
41062;BME280;26812;42.662;23.352;2023-03-07T02:23:58;94064.09;;;10.08;48.35
41062;BME280;26812;42.662;23.352;2023-03-07T02:28:58;94068.69;;;9.95;49.11
41062;BME280;26812;42.662;23.352;2023-03-07T02:31:26;94040.94;;;10.40;47.42
41062;BME280;26812;42.662;23.352;2023-03-07T02:33:52;94036.56;;;10.11;48.43
41062;BME280;26812;42.662;23.352;2023-03-07T02:36:25;94057.31;;;9.78;50.37
41062;BME280;26812;42.662;23.352;2023-03-07T02:38:53;94057.06;;;9.71;49.64
41062;BME280;26812;42.662;23.352;2023-03-07T02:41:24;94066.97;;;10.24;49.25
41062;BME280;26812;42.662;23.352;2023-03-07T02:43:50;94043.69;;;9.50;50.58
41062;BME280;26812;42.662;23.352;2023-03-07T02:46:16;94064.66;;;9.36;50.34
41062;BME280;26812;42.662;23.352;2023-03-07T02:48:41;94060.72;;;9.87;49.29
41062;BME280;26812;42.662;23.352;2023-03-07T02:51:07;94037.88;;;9.60;49.29
41062;BME280;26812;42.662;23.352;2023-03-07T02:53:32;94041.81;;;8.20;53.16
41062;BME280;26812;42.662;23.352;2023-03-07T02:55:58;94060.78;;;8.83;53.50
41062;BME280;26812;42.662;23.352;2023-03-07T02:58:23;94067.75;;;9.05;52.02
41062;BME280;26812;42.662;23.352;2023-03-07T03:00:48;94060.88;;;8.95;52.44
41062;BME280;26812;42.662;23.352;2023-03-07T03:03:14;94084.63;;;9.68;50.43
41062;BME280;26812;42.662;23.352;2023-03-07T03:05:39;94056.28;;;9.70;49.73
41062;BME280;26812;42.662;23.352;2023-03-07T03:08:05;94078.63;;;9.50;50.11
41062;BME280;26812;42.662;23.352;2023-03-07T03:10:31;94072.88;;;9.72;49.86
41062;BME280;26812;42.662;23.352;2023-03-07T03:12:56;94000.69;;;9.08;50.12
41062;BME280;26812;42.662;23.352;2023-03-07T03:15:22;94072.25;;;9.87;49.64
41062;BME280;26812;42.662;23.352;2023-03-07T03:17:48;94070.31;;;9.76;49.79
41062;BME280;26812;42.662;23.352;2023-03-07T03:20:13;94047.72;;;9.89;50.34
41062;BME280;26812;42.662;23.352;2023-03-07T03:22:41;94022.56;;;9.73;49.34
41062;BME280;26812;42.662;23.352;2023-03-07T03:25:13;94041.56;;;10.01;48.58
41062;BME280;26812;42.662;23.352;2023-03-07T03:27:39;94055.25;;;9.62;49.48
41062;BME280;26812;42.662;23.352;2023-03-07T03:30:09;94044.59;;;9.99;49.27
41062;BME280;26812;42.662;23.352;2023-03-07T03:32:39;94040.63;;;10.30;48.05
41062;BME280;26812;42.662;23.352;2023-03-07T03:35:05;94032.06;;;10.15;47.83
41062;BME280;26812;42.662;23.352;2023-03-07T03:37:31;94064.09;;;9.96;49.30
41062;BME280;26812;42.662;23.352;2023-03-07T03:39:57;94068.91;;;9.57;50.58
41062;BME280;26812;42.662;23.352;2023-03-07T03:42:22;94059.63;;;8.92;52.71
41062;BME280;26812;42.662;23.352;2023-03-07T03:44:48;94017.06;;;9.69;49.65
41062;BME280;26812;42.662;23.352;2023-03-07T03:47:14;94085.44;;;9.47;50.87
41062;BME280;26812;42.662;23.352;2023-03-07T03:49:39;94076.47;;;9.76;50.17
41062;BME280;26812;42.662;23.352;2023-03-07T03:52:05;94078.66;;;9.95;50.08
41062;BME280;26812;42.662;23.352;2023-03-07T03:54:30;94058.66;;;10.17;48.85
41062;BME280;26812;42.662;23.352;2023-03-07T03:56:56;94045.78;;;10.22;48.42
41062;BME280;26812;42.662;23.352;2023-03-07T03:59:21;94085.00;;;10.11;48.97
41062;BME280;26812;42.662;23.352;2023-03-07T04:01:47;94088.63;;;9.94;49.97
41062;BME280;26812;42.662;23.352;2023-03-07T04:04:12;94086.88;;;9.65;49.79
41062;BME280;26812;42.662;23.352;2023-03-07T04:06:38;94081.91;;;9.34;51.04
41062;BME280;26812;42.662;23.352;2023-03-07T04:09:03;94069.16;;;9.44;50.51
41062;BME280;26812;42.662;23.352;2023-03-07T04:11:29;94032.06;;;9.70;49.78
41062;BME280;26812;42.662;23.352;2023-03-07T04:13:55;94040.88;;;9.91;49.53
41062;BME280;26812;42.662;23.352;2023-03-07T04:16:20;94056.69;;;10.05;48.91
41062;BME280;26812;42.662;23.352;2023-03-07T04:18:47;94072.22;;;9.21;51.47
41062;BME280;26812;42.662;23.352;2023-03-07T04:21:14;94056.47;;;9.11;51.36
41062;BME280;26812;42.662;23.352;2023-03-07T04:23:39;94075.47;;;9.48;51.03
41062;BME280;26812;42.662;23.352;2023-03-07T04:26:06;94083.88;;;9.79;50.69
41062;BME280;26812;42.662;23.352;2023-03-07T04:28:35;94079.34;;;9.92;49.78
41062;BME280;26812;42.662;23.352;2023-03-07T04:31:15;94076.88;;;9.99;50.02
41062;BME280;26812;42.662;23.352;2023-03-07T04:33:41;94041.16;;;9.78;49.99
41062;BME280;26812;42.662;23.352;2023-03-07T04:36:14;94081.00;;;9.51;51.96
41062;BME280;26812;42.662;23.352;2023-03-07T04:38:40;94103.41;;;9.34;52.89
41062;BME280;26812;42.662;23.352;2023-03-07T04:41:07;94096.47;;;9.87;51.10
41062;BME280;26812;42.662;23.352;2023-03-07T04:43:33;94069.25;;;9.14;52.79
41062;BME280;26812;42.662;23.352;2023-03-07T04:45:59;94072.94;;;9.30;52.92
41062;BME280;26812;42.662;23.352;2023-03-07T04:48:24;94090.88;;;9.18;54.15
41062;BME280;26812;42.662;23.352;2023-03-07T04:50:50;94100.25;;;8.91;54.49
41062;BME280;26812;42.662;23.352;2023-03-07T04:53:17;94112.66;;;8.36;56.93
41062;BME280;26812;42.662;23.352;2023-03-07T04:55:43;94123.53;;;8.40;56.42
41062;BME280;26812;42.662;23.352;2023-03-07T04:58:09;94106.34;;;8.24;57.40
41062;BME280;26812;42.662;23.352;2023-03-07T05:00:46;94097.31;;;9.25;54.54
41062;BME280;26812;42.662;23.352;2023-03-07T05:03:12;94099.16;;;9.87;52.81
41062;BME280;26812;42.662;23.352;2023-03-07T05:05:38;94108.50;;;9.48;53.91
41062;BME280;26812;42.662;23.352;2023-03-07T05:08:04;94099.19;;;10.00;52.23
41062;BME280;26812;42.662;23.352;2023-03-07T05:10:31;94095.00;;;9.57;52.87
41062;BME280;26812;42.662;23.352;2023-03-07T05:12:56;94061.00;;;9.19;53.55
41062;BME280;26812;42.662;23.352;2023-03-07T05:15:21;94110.72;;;9.88;52.80
41062;BME280;26812;42.662;23.352;2023-03-07T05:17:47;94089.31;;;8.96;54.97
41062;BME280;26812;42.662;23.352;2023-03-07T05:20:12;94122.09;;;9.52;54.24
41062;BME280;26812;42.662;23.352;2023-03-07T05:22:38;94067.47;;;8.97;55.32
41062;BME280;26812;42.662;23.352;2023-03-07T05:25:04;94121.06;;;9.77;53.19
41062;BME280;26812;42.662;23.352;2023-03-07T05:27:29;94109.97;;;9.46;53.46
41062;BME280;26812;42.662;23.352;2023-03-07T05:29:55;94119.06;;;9.74;53.03
41062;BME280;26812;42.662;23.352;2023-03-07T05:32:20;94106.72;;;10.51;51.40
41062;BME280;26812;42.662;23.352;2023-03-07T05:34:46;94101.75;;;10.29;50.79
41062;BME280;26812;42.662;23.352;2023-03-07T05:37:12;94093.25;;;10.51;51.05
41062;BME280;26812;42.662;23.352;2023-03-07T05:39:37;94114.13;;;9.76;53.09
41062;BME280;26812;42.662;23.352;2023-03-07T05:42:03;94135.81;;;9.80;53.54
41062;BME280;26812;42.662;23.352;2023-03-07T05:44:29;94110.25;;;9.86;53.75
41062;BME280;26812;42.662;23.352;2023-03-07T05:46:54;94115.50;;;10.15;52.90
41062;BME280;26812;42.662;23.352;2023-03-07T05:49:22;94114.88;;;10.31;52.12
41062;BME280;26812;42.662;23.352;2023-03-07T05:51:49;94131.88;;;9.56;54.40
41062;BME280;26812;42.662;23.352;2023-03-07T05:54:14;94132.25;;;9.25;56.40
41062;BME280;26812;42.662;23.352;2023-03-07T05:56:40;94119.06;;;10.07;52.65
41062;BME280;26812;42.662;23.352;2023-03-07T05:59:05;94117.88;;;10.17;52.12
41062;BME280;26812;42.662;23.352;2023-03-07T06:01:32;94125.53;;;9.73;54.25
41062;BME280;26812;42.662;23.352;2023-03-07T06:03:58;94120.09;;;8.98;55.73
41062;BME280;26812;42.662;23.352;2023-03-07T06:06:24;94138.50;;;8.50;59.39
41062;BME280;26812;42.662;23.352;2023-03-07T06:08:49;94144.88;;;9.04;56.88
41062;BME280;26812;42.662;23.352;2023-03-07T06:11:14;94102.84;;;9.83;53.78
41062;BME280;26812;42.662;23.352;2023-03-07T06:13:40;94126.34;;;9.74;53.87
41062;BME280;26812;42.662;23.352;2023-03-07T06:16:05;94140.13;;;9.30;54.94
41062;BME280;26812;42.662;23.352;2023-03-07T06:18:31;94141.84;;;9.56;55.28
41062;BME280;26812;42.662;23.352;2023-03-07T06:20:58;94122.75;;;10.36;52.10
41062;BME280;26812;42.662;23.352;2023-03-07T06:23:26;94144.31;;;9.40;54.66
41062;BME280;26812;42.662;23.352;2023-03-07T06:25:51;94133.59;;;9.94;53.73
41062;BME280;26812;42.662;23.352;2023-03-07T06:28:17;94138.38;;;10.54;51.48
41062;BME280;26812;42.662;23.352;2023-03-07T06:30:42;94115.47;;;10.03;52.58
41062;BME280;26812;42.662;23.352;2023-03-07T06:33:08;94111.59;;;9.80;52.69
41062;BME280;26812;42.662;23.352;2023-03-07T06:35:33;94116.50;;;10.93;49.64
41062;BME280;26812;42.662;23.352;2023-03-07T06:38:02;94121.19;;;11.20;49.37
41062;BME280;26812;42.662;23.352;2023-03-07T06:40:27;94089.56;;;10.80;50.10
41062;BME280;26812;42.662;23.352;2023-03-07T06:42:53;94145.41;;;10.35;52.54
41062;BME280;26812;42.662;23.352;2023-03-07T06:45:18;94126.50;;;11.04;49.63
41062;BME280;26812;42.662;23.352;2023-03-07T06:47:43;94137.91;;;11.26;49.52
41062;BME280;26812;42.662;23.352;2023-03-07T06:50:09;94153.03;;;11.55;48.98
41062;BME280;26812;42.662;23.352;2023-03-07T06:52:35;94144.03;;;12.31;46.49
41062;BME280;26812;42.662;23.352;2023-03-07T06:55:01;94146.84;;;12.50;45.83
41062;BME280;26812;42.662;23.352;2023-03-07T06:57:26;94146.34;;;12.60;45.86
41062;BME280;26812;42.662;23.352;2023-03-07T06:59:55;94161.72;;;12.00;47.37
41062;BME280;26812;42.662;23.352;2023-03-07T07:02:20;94109.56;;;12.56;45.41
41062;BME280;26812;42.662;23.352;2023-03-07T07:04:45;94123.66;;;12.33;45.79
41062;BME280;26812;42.662;23.352;2023-03-07T07:07:11;94119.22;;;12.72;44.49
41062;BME280;26812;42.662;23.352;2023-03-07T07:09:36;94141.03;;;12.95;44.09
41062;BME280;26812;42.662;23.352;2023-03-07T07:12:02;94156.38;;;12.60;45.72
41062;BME280;26812;42.662;23.352;2023-03-07T07:14:29;94120.19;;;12.80;44.69
41062;BME280;26812;42.662;23.352;2023-03-07T07:16:54;94153.13;;;12.70;45.31
41062;BME280;26812;42.662;23.352;2023-03-07T07:19:19;94132.81;;;12.44;45.95
41062;BME280;26812;42.662;23.352;2023-03-07T07:21:46;94154.25;;;13.48;43.53
41062;BME280;26812;42.662;23.352;2023-03-07T07:24:11;94149.09;;;13.43;44.05
41062;BME280;26812;42.662;23.352;2023-03-07T07:26:37;94149.72;;;13.04;44.82
41062;BME280;26812;42.662;23.352;2023-03-07T07:29:03;94140.72;;;13.48;43.98
41062;BME280;26812;42.662;23.352;2023-03-07T07:31:28;94130.00;;;13.35;43.81
41062;BME280;26812;42.662;23.352;2023-03-07T07:33:54;94146.03;;;13.44;43.73
41062;BME280;26812;42.662;23.352;2023-03-07T07:36:19;94153.75;;;13.61;43.17
41062;BME280;26812;42.662;23.352;2023-03-07T07:38:45;94160.91;;;13.70;42.66
41062;BME280;26812;42.662;23.352;2023-03-07T07:41:10;94151.63;;;13.35;43.45
41062;BME280;26812;42.662;23.352;2023-03-07T07:43:36;94151.56;;;13.67;42.67
41062;BME280;26812;42.662;23.352;2023-03-07T07:46:03;94131.63;;;13.40;42.96
41062;BME280;26812;42.662;23.352;2023-03-07T07:48:29;94154.16;;;13.79;42.33
41062;BME280;26812;42.662;23.352;2023-03-07T07:50:59;94139.59;;;13.68;41.58
41062;BME280;26812;42.662;23.352;2023-03-07T07:53:24;94159.56;;;13.79;42.49
41062;BME280;26812;42.662;23.352;2023-03-07T07:55:50;94165.13;;;14.06;41.65
41062;BME280;26812;42.662;23.352;2023-03-07T07:58:15;94167.94;;;13.74;41.80
41062;BME280;26812;42.662;23.352;2023-03-07T08:00:40;94167.38;;;13.30;43.37
41062;BME280;26812;42.662;23.352;2023-03-07T08:03:06;94169.94;;;13.58;42.63
41062;BME280;26812;42.662;23.352;2023-03-07T08:05:31;94160.78;;;13.15;43.46
41062;BME280;26812;42.662;23.352;2023-03-07T08:07:59;94151.69;;;13.55;42.77
41062;BME280;26812;42.662;23.352;2023-03-07T08:10:25;94163.91;;;14.42;40.90
41062;BME280;26812;42.662;23.352;2023-03-07T08:12:50;94158.91;;;13.66;41.89
41062;BME280;26812;42.662;23.352;2023-03-07T08:15:16;94170.75;;;14.36;40.64
41062;BME280;26812;42.662;23.352;2023-03-07T08:17:42;94165.50;;;14.43;40.55
41062;BME280;26812;42.662;23.352;2023-03-07T08:20:09;94153.34;;;14.56;40.38
41062;BME280;26812;42.662;23.352;2023-03-07T08:22:37;94151.34;;;14.72;39.97
41062;BME280;26812;42.662;23.352;2023-03-07T08:25:07;94154.97;;;14.60;40.58
41062;BME280;26812;42.662;23.352;2023-03-07T08:27:33;94148.19;;;14.70;40.78
41062;BME280;26812;42.662;23.352;2023-03-07T08:29:59;94179.28;;;14.76;40.92
41062;BME280;26812;42.662;23.352;2023-03-07T08:32:26;94172.13;;;15.10;39.91
41062;BME280;26812;42.662;23.352;2023-03-07T08:34:55;94128.53;;;14.35;40.98
41062;BME280;26812;42.662;23.352;2023-03-07T08:37:20;94086.84;;;13.78;41.78
41062;BME280;26812;42.662;23.352;2023-03-07T08:39:46;94053.00;;;13.49;42.22
41062;BME280;26812;42.662;23.352;2023-03-07T08:42:11;94117.38;;;14.17;40.09
41062;BME280;26812;42.662;23.352;2023-03-07T08:44:37;94118.47;;;14.12;40.29
41062;BME280;26812;42.662;23.352;2023-03-07T08:47:02;94152.59;;;15.77;38.12
41062;BME280;26812;42.662;23.352;2023-03-07T08:49:27;94141.72;;;16.07;37.10
41062;BME280;26812;42.662;23.352;2023-03-07T08:51:53;94152.09;;;17.05;35.48
41062;BME280;26812;42.662;23.352;2023-03-07T08:54:18;94156.56;;;17.83;33.80
41062;BME280;26812;42.662;23.352;2023-03-07T08:56:44;94149.31;;;18.08;33.62
41062;BME280;26812;42.662;23.352;2023-03-07T08:59:09;94160.41;;;18.61;32.65
41062;BME280;26812;42.662;23.352;2023-03-07T09:01:34;94125.78;;;18.76;32.08
41062;BME280;26812;42.662;23.352;2023-03-07T09:04:00;94132.84;;;19.06;31.24
41062;BME280;26812;42.662;23.352;2023-03-07T09:06:25;94133.16;;;18.65;30.97
41062;BME280;26812;42.662;23.352;2023-03-07T09:08:51;94161.66;;;18.71;30.51
41062;BME280;26812;42.662;23.352;2023-03-07T09:11:17;94152.69;;;18.81;30.67
41062;BME280;26812;42.662;23.352;2023-03-07T09:13:43;94164.81;;;19.44;28.93
41062;BME280;26812;42.662;23.352;2023-03-07T09:16:09;94124.25;;;19.18;30.06
41062;BME280;26812;42.662;23.352;2023-03-07T09:18:35;94151.56;;;19.32;29.73
41062;BME280;26812;42.662;23.352;2023-03-07T09:21:01;94151.94;;;19.02;29.95
41062;BME280;26812;42.662;23.352;2023-03-07T09:23:27;94142.22;;;19.33;29.87
41062;BME280;26812;42.662;23.352;2023-03-07T09:25:53;94128.84;;;20.03;27.48
41062;BME280;26812;42.662;23.352;2023-03-07T09:28:18;94138.19;;;20.09;28.09
41062;BME280;26812;42.662;23.352;2023-03-07T09:30:44;94119.22;;;20.64;26.96
41062;BME280;26812;42.662;23.352;2023-03-07T09:33:09;94121.41;;;20.07;27.75
41062;BME280;26812;42.662;23.352;2023-03-07T09:35:37;94128.09;;;20.86;26.59
41062;BME280;26812;42.662;23.352;2023-03-07T09:38:02;94115.00;;;20.53;27.71
41062;BME280;26812;42.662;23.352;2023-03-07T09:40:28;94116.91;;;20.59;26.65
41062;BME280;26812;42.662;23.352;2023-03-07T09:43:17;94137.72;;;20.32;26.45
41062;BME280;26812;42.662;23.352;2023-03-07T09:46:11;94139.34;;;18.58;29.48
41062;BME280;26812;42.662;23.352;2023-03-07T09:51:24;94132.38;;;22.25;24.19
41062;BME280;26812;42.662;23.352;2023-03-07T09:53:56;94097.91;;;22.24;23.78
41062;BME280;26812;42.662;23.352;2023-03-07T09:56:28;94114.38;;;21.86;24.52
41062;BME280;26812;42.662;23.352;2023-03-07T09:59:08;94092.81;;;22.83;22.42
41062;BME280;26812;42.662;23.352;2023-03-07T10:01:36;94087.75;;;23.56;21.43
41062;BME280;26812;42.662;23.352;2023-03-07T10:04:09;94076.03;;;23.05;21.60
41062;BME280;26812;42.662;23.352;2023-03-07T10:06:40;94096.91;;;23.72;21.30
41062;BME280;26812;42.662;23.352;2023-03-07T10:09:35;94096.69;;;24.26;20.82
41062;BME280;26812;42.662;23.352;2023-03-07T10:26:07;94069.66;;;27.76;16.91
41062;BME280;26812;42.662;23.352;2023-03-07T10:28:36;94075.38;;;27.81;16.68
41062;BME280;26812;42.662;23.352;2023-03-07T10:31:15;94073.69;;;27.24;16.85
41062;BME280;26812;42.662;23.352;2023-03-07T10:33:45;94039.72;;;28.40;16.30
41062;BME280;26812;42.662;23.352;2023-03-07T10:41:27;94040.88;;;30.45;14.62
41062;BME280;26812;42.662;23.352;2023-03-07T10:43:53;94050.63;;;31.01;13.74
41062;BME280;26812;42.662;23.352;2023-03-07T10:46:27;94040.44;;;30.19;14.72
41062;BME280;26812;42.662;23.352;2023-03-07T10:49:00;94048.16;;;27.20;17.48
41062;BME280;26812;42.662;23.352;2023-03-07T10:54:13;94027.81;;;26.88;17.68
41062;BME280;26812;42.662;23.352;2023-03-07T10:56:40;94012.31;;;26.53;17.79
41062;BME280;26812;42.662;23.352;2023-03-07T10:59:08;94006.28;;;28.65;16.12
41062;BME280;26812;42.662;23.352;2023-03-07T11:01:35;93986.41;;;28.58;16.39
41062;BME280;26812;42.662;23.352;2023-03-07T11:04:20;94013.09;;;29.99;14.54
41062;BME280;26812;42.662;23.352;2023-03-07T11:09:15;93993.75;;;25.41;18.54
41062;BME280;26812;42.662;23.352;2023-03-07T11:11:54;93980.84;;;25.05;18.60
41062;BME280;26812;42.662;23.352;2023-03-07T11:14:21;93974.19;;;24.54;18.89
41062;BME280;26812;42.662;23.352;2023-03-07T11:16:47;93980.72;;;23.68;19.93
41062;BME280;26812;42.662;23.352;2023-03-07T11:19:38;93981.25;;;25.82;17.90
41062;BME280;26812;42.662;23.352;2023-03-07T11:22:26;93959.78;;;27.29;17.41
41062;BME280;26812;42.662;23.352;2023-03-07T11:24:53;93969.91;;;29.89;14.78
41062;BME280;26812;42.662;23.352;2023-03-07T11:27:23;93957.44;;;29.66;14.61
41062;BME280;26812;42.662;23.352;2023-03-07T12:05:41;93918.97;;;25.68;17.05
41062;BME280;26812;42.662;23.352;2023-03-07T12:16:47;93909.28;;;27.94;15.22
41062;BME280;26812;42.662;23.352;2023-03-07T12:24:28;93906.53;;;29.33;12.76
41062;BME280;26812;42.662;23.352;2023-03-07T12:27:11;93909.44;;;28.22;14.00
41062;BME280;26812;42.662;23.352;2023-03-07T12:29:46;93911.13;;;27.19;14.59
41062;BME280;26812;42.662;23.352;2023-03-07T12:32:24;93904.78;;;27.66;14.24
41062;BME280;26812;42.662;23.352;2023-03-07T12:37:45;93900.75;;;23.79;17.74
41062;BME280;26812;42.662;23.352;2023-03-07T12:40:27;93885.31;;;23.45;17.96
41062;BME280;26812;42.662;23.352;2023-03-07T12:43:34;93887.47;;;21.94;20.10
41062;BME280;26812;42.662;23.352;2023-03-07T12:46:42;93901.31;;;21.83;20.85
41062;BME280;26812;42.662;23.352;2023-03-07T12:49:31;93902.97;;;22.08;19.46
41062;BME280;26812;42.662;23.352;2023-03-07T12:52:05;93878.69;;;23.43;19.00
41062;BME280;26812;42.662;23.352;2023-03-07T12:54:38;93889.97;;;23.88;17.66
41062;BME280;26812;42.662;23.352;2023-03-07T12:57:13;93885.06;;;25.26;16.28
41062;BME280;26812;42.662;23.352;2023-03-07T12:59:42;93886.06;;;25.03;16.97
41062;BME280;26812;42.662;23.352;2023-03-07T13:02:19;93872.66;;;25.47;16.36
41062;BME280;26812;42.662;23.352;2023-03-07T13:04:46;93873.81;;;25.33;16.16
41062;BME280;26812;42.662;23.352;2023-03-07T13:07:26;93881.72;;;25.47;15.24
41062;BME280;26812;42.662;23.352;2023-03-07T13:09:53;93900.09;;;24.92;15.86
41062;BME280;26812;42.662;23.352;2023-03-07T13:12:22;93896.81;;;25.14;16.47
41062;BME280;26812;42.662;23.352;2023-03-07T13:14:56;93888.41;;;24.72;16.39
41062;BME280;26812;42.662;23.352;2023-03-07T13:20:03;93887.22;;;26.02;15.69
41062;BME280;26812;42.662;23.352;2023-03-07T13:38:00;93875.00;;;23.10;18.38
41062;BME280;26812;42.662;23.352;2023-03-07T13:45:48;93893.69;;;22.25;19.95
41062;BME280;26812;42.662;23.352;2023-03-07T13:53:38;93886.00;;;21.25;20.50
41062;BME280;26812;42.662;23.352;2023-03-07T14:01:23;93867.28;;;20.41;22.22
41062;BME280;26812;42.662;23.352;2023-03-07T14:06:40;93878.69;;;20.29;22.58
41062;BME280;26812;42.662;23.352;2023-03-07T14:09:13;93859.91;;;20.75;22.46
41062;BME280;26812;42.662;23.352;2023-03-07T14:11:41;93885.94;;;20.94;21.85
41062;BME280;26812;42.662;23.352;2023-03-07T14:14:22;93882.50;;;19.90;22.56
41062;BME280;26812;42.662;23.352;2023-03-07T14:17:07;93878.75;;;20.22;22.16
41062;BME280;26812;42.662;23.352;2023-03-07T14:25:15;93877.13;;;18.64;23.75
41062;BME280;26812;42.662;23.352;2023-03-07T14:27:59;93868.84;;;19.03;23.20
41062;BME280;26812;42.662;23.352;2023-03-07T14:30:28;93868.00;;;19.16;24.33
41062;BME280;26812;42.662;23.352;2023-03-07T14:32:55;93886.94;;;19.63;25.04
41062;BME280;26812;42.662;23.352;2023-03-07T14:35:37;93902.84;;;18.13;25.72
41062;BME280;26812;42.662;23.352;2023-03-07T14:38:32;93890.78;;;18.42;26.47
41062;BME280;26812;42.662;23.352;2023-03-07T14:41:15;93898.94;;;18.46;25.43
41062;BME280;26812;42.662;23.352;2023-03-07T14:49:45;93888.44;;;18.19;25.26
41062;BME280;26812;42.662;23.352;2023-03-07T14:52:14;93895.81;;;17.90;25.01
41062;BME280;26812;42.662;23.352;2023-03-07T14:54:43;93897.00;;;18.28;24.46
41062;BME280;26812;42.662;23.352;2023-03-07T14:57:21;93875.19;;;18.07;25.11
41062;BME280;26812;42.662;23.352;2023-03-07T15:02:28;93868.47;;;17.48;25.42
41062;BME280;26812;42.662;23.352;2023-03-07T15:04:54;93879.03;;;17.67;25.25
41062;BME280;26812;42.662;23.352;2023-03-07T15:07:20;93859.91;;;17.56;25.52
41062;BME280;26812;42.662;23.352;2023-03-07T15:09:46;93860.25;;;17.33;26.13
41062;BME280;26812;42.662;23.352;2023-03-07T15:12:15;93876.19;;;17.28;26.16
41062;BME280;26812;42.662;23.352;2023-03-07T15:14:45;93888.38;;;16.79;27.33
41062;BME280;26812;42.662;23.352;2023-03-07T15:19:48;93875.81;;;16.53;27.99
41062;BME280;26812;42.662;23.352;2023-03-07T15:22:32;93872.28;;;16.53;27.98